createdAt,value
2018-12-11T00:01:34.607Z,7.54
2018-12-11T00:03:42.709Z,7.59
2018-12-11T00:05:49.509Z,7.55
2018-12-11T00:07:55.726Z,7.50
2018-12-11T00:10:02.224Z,7.50
2018-12-11T00:12:08.602Z,7.50
2018-12-11T00:14:14.729Z,7.51
2018-12-11T00:16:21.494Z,7.51
2018-12-11T00:18:33.765Z,7.51
2018-12-11T00:20:40.714Z,7.50
2018-12-11T00:22:47.331Z,7.50
2018-12-11T00:24:53.568Z,7.51
2018-12-11T00:27:00.623Z,7.52
2018-12-11T00:29:12.358Z,7.55
2018-12-11T00:31:18.596Z,7.58
2018-12-11T00:35:41.879Z,7.65
2018-12-11T00:37:47.973Z,7.68
2018-12-11T00:39:54.622Z,7.74
2018-12-11T00:42:01.361Z,7.78
2018-12-11T00:44:08.710Z,7.82
2018-12-11T00:46:15.473Z,7.83
2018-12-11T00:48:21.579Z,7.86
2018-12-11T00:50:27.801Z,7.89
2018-12-11T00:52:34.174Z,7.91
2018-12-11T00:54:40.343Z,7.93
2018-12-11T00:56:50.592Z,7.94
2018-12-11T00:59:00.195Z,7.94
2018-12-11T01:01:07.288Z,7.95
2018-12-11T01:03:15.043Z,7.95
2018-12-11T01:05:21.221Z,7.95
2018-12-11T01:07:27.364Z,7.96
2018-12-11T01:09:33.481Z,7.98
2018-12-11T01:11:39.747Z,8.01
2018-12-11T01:13:46.035Z,8.02
2018-12-11T01:15:53.329Z,8.03
2018-12-11T01:17:59.856Z,8.05
2018-12-11T01:20:06.892Z,8.07
2018-12-11T01:22:13.047Z,8.06
2018-12-11T01:24:19.225Z,8.08
2018-12-11T01:26:25.421Z,8.09
2018-12-11T01:28:31.703Z,8.11
2018-12-11T01:30:37.790Z,8.12
2018-12-11T01:35:03.548Z,8.11
2018-12-11T01:37:12.168Z,8.09
2018-12-11T01:39:34.100Z,8.06
2018-12-11T01:41:47.014Z,8.03
2018-12-11T01:43:53.119Z,8.01
2018-12-11T01:45:59.267Z,7.99
2018-12-11T01:48:06.283Z,7.98
2018-12-11T01:50:12.360Z,7.97
2018-12-11T01:52:18.898Z,7.98
2018-12-11T01:54:27.329Z,7.97
2018-12-11T01:56:34.845Z,7.99
2018-12-11T01:58:41.262Z,7.98
2018-12-11T02:00:47.514Z,7.99
2018-12-11T02:02:53.605Z,7.98
2018-12-11T02:04:59.815Z,7.99
2018-12-11T02:07:06.987Z,8.00
2018-12-11T02:09:13.647Z,8.00
2018-12-11T02:11:20.085Z,8.00
2018-12-11T02:13:26.162Z,8.02
2018-12-11T02:15:32.617Z,8.03
2018-12-11T02:17:38.786Z,8.04
2018-12-11T02:19:45.577Z,8.05
2018-12-11T02:21:51.842Z,8.05
2018-12-11T02:23:58.709Z,8.05
2018-12-11T02:26:04.771Z,8.04
2018-12-11T02:28:10.922Z,8.03
2018-12-11T02:30:19.328Z,8.04
2018-12-11T02:32:25.928Z,8.07
2018-12-11T02:34:32.079Z,8.07
2018-12-11T02:36:38.161Z,8.08
2018-12-11T02:38:44.896Z,8.11
2018-12-11T02:40:51.048Z,8.09
2018-12-11T02:42:57.172Z,8.08
2018-12-11T02:45:04.022Z,8.08
2018-12-11T02:47:10.379Z,8.07
2018-12-11T02:49:17.511Z,8.07
2018-12-11T02:51:24.017Z,8.07
2018-12-11T02:53:30.147Z,8.08
2018-12-11T02:55:36.628Z,8.07
2018-12-11T02:57:42.780Z,8.08
2018-12-11T02:59:49.900Z,8.09
2018-12-11T03:01:57.027Z,8.09
2018-12-11T03:04:03.297Z,8.10
2018-12-11T03:06:09.460Z,8.11
2018-12-11T03:08:15.670Z,8.12
2018-12-11T03:10:23.303Z,8.12
2018-12-11T03:12:29.448Z,8.12
2018-12-11T03:14:35.542Z,8.12
2018-12-11T03:16:41.688Z,8.11
2018-12-11T03:18:47.833Z,8.11
2018-12-11T03:20:53.961Z,8.11
2018-12-11T03:23:00.509Z,8.09
2018-12-11T03:25:06.923Z,8.09
2018-12-11T03:27:13.896Z,8.11
2018-12-11T03:29:20.781Z,8.11
2018-12-11T03:31:27.683Z,8.13
2018-12-11T03:33:33.973Z,8.13
2018-12-11T03:35:40.578Z,8.13
2018-12-11T03:37:46.710Z,8.12
2018-12-11T03:39:52.804Z,8.13
2018-12-11T03:41:59.396Z,8.14
2018-12-11T03:44:06.002Z,8.15
2018-12-11T03:46:12.215Z,8.16
2018-12-11T03:48:18.471Z,8.16
2018-12-11T03:50:24.818Z,8.15
2018-12-11T03:52:31.189Z,8.13
2018-12-11T03:54:37.609Z,8.14
2018-12-11T03:56:44.924Z,8.14
2018-12-11T03:58:51.075Z,8.14
2018-12-11T04:00:57.235Z,8.14
2018-12-11T04:03:04.013Z,8.12
2018-12-11T04:05:10.223Z,8.09
2018-12-11T04:07:16.447Z,8.05
2018-12-11T04:09:22.614Z,8.00
2018-12-11T04:11:28.868Z,7.99
2018-12-11T04:13:35.134Z,7.97
2018-12-11T04:15:42.376Z,7.94
2018-12-11T04:17:49.651Z,7.93
2018-12-11T04:19:56.337Z,7.91
2018-12-11T04:22:03.187Z,7.89
2018-12-11T04:24:09.428Z,7.88
2018-12-11T04:26:17.680Z,7.85
2018-12-11T04:28:24.777Z,7.85
2018-12-11T04:30:30.854Z,7.81
2018-12-11T04:32:36.992Z,7.77
2018-12-11T04:37:00.364Z,7.71
2018-12-11T04:39:08.118Z,7.68
2018-12-11T04:41:14.247Z,7.64
2018-12-11T04:43:20.387Z,7.62
2018-12-11T04:45:26.651Z,7.60
2018-12-11T04:47:32.732Z,7.56
2018-12-11T04:49:40.279Z,7.53
2018-12-11T04:51:46.476Z,7.49
2018-12-11T04:53:52.778Z,7.45
2018-12-11T04:55:59.260Z,7.42
2018-12-11T04:58:05.776Z,7.38
2018-12-11T05:00:12.246Z,7.35
2018-12-11T05:02:18.314Z,7.30
2018-12-11T05:04:24.409Z,7.31
2018-12-11T05:06:30.490Z,7.30
2018-12-11T05:08:36.666Z,7.30
2018-12-11T05:10:43.021Z,7.31
2018-12-11T05:12:56.218Z,7.31
2018-12-11T05:15:02.283Z,7.28
2018-12-11T05:17:08.466Z,7.26
2018-12-11T05:19:14.626Z,7.22
2018-12-11T05:21:21.056Z,7.19
2018-12-11T05:23:27.099Z,7.16
2018-12-11T05:25:33.265Z,7.13
2018-12-11T05:27:39.829Z,7.09
2018-12-11T05:29:48.602Z,7.05
2018-12-11T05:31:56.105Z,7.00
2018-12-11T05:34:02.322Z,6.97
2018-12-11T05:36:08.602Z,6.94
2018-12-11T05:40:31.017Z,6.85
2018-12-11T05:42:37.107Z,6.81
2018-12-11T05:44:43.195Z,6.77
2018-12-11T05:46:49.428Z,6.75
2018-12-11T05:48:56.475Z,6.72
2018-12-11T05:51:03.148Z,6.71
2018-12-11T05:53:09.274Z,6.69
2018-12-11T05:55:15.478Z,6.65
2018-12-11T05:57:21.643Z,6.62
2018-12-11T05:59:31.375Z,6.59
2018-12-11T06:01:37.498Z,6.56
2018-12-11T06:03:43.672Z,6.53
2018-12-11T06:05:50.437Z,6.49
2018-12-11T06:07:56.526Z,6.46
2018-12-11T06:10:02.643Z,6.44
2018-12-11T06:12:08.822Z,6.43
2018-12-11T06:14:14.947Z,6.42
2018-12-11T06:16:21.589Z,6.42
2018-12-11T06:18:27.717Z,6.40
2018-12-11T06:20:34.552Z,6.41
2018-12-11T06:22:41.535Z,6.39
2018-12-11T06:24:47.655Z,6.37
2018-12-11T06:26:54.526Z,6.37
2018-12-11T06:29:00.768Z,6.37
2018-12-11T06:31:06.881Z,6.40
2018-12-11T06:33:14.202Z,6.45
2018-12-11T06:35:20.333Z,6.47
2018-12-11T06:37:26.553Z,6.50
2018-12-11T06:39:32.633Z,6.54
2018-12-11T06:41:38.813Z,6.60
2018-12-11T06:43:45.280Z,6.64
2018-12-11T06:45:51.382Z,6.67
2018-12-11T06:47:57.502Z,6.72
2018-12-11T06:50:03.675Z,6.79
2018-12-11T06:52:09.812Z,6.84
2018-12-11T06:54:15.957Z,6.89
2018-12-11T06:56:22.172Z,6.95
2018-12-11T06:58:28.328Z,7.00
2018-12-11T07:00:42.589Z,7.05
2018-12-11T07:02:48.964Z,7.08
2018-12-11T07:07:11.540Z,7.14
2018-12-11T07:09:18.569Z,7.17
2018-12-11T07:11:25.329Z,7.19
2018-12-11T07:13:32.138Z,7.20
2018-12-11T07:15:38.327Z,7.22
2018-12-11T07:17:44.573Z,7.22
2018-12-11T07:19:50.818Z,7.22
2018-12-11T07:21:57.544Z,7.22
2018-12-11T07:24:03.690Z,7.21
2018-12-11T07:26:10.036Z,7.21
2018-12-11T07:28:16.222Z,7.20
2018-12-11T07:30:22.362Z,7.21
2018-12-11T07:32:31.000Z,7.20
2018-12-11T07:34:37.243Z,7.19
2018-12-11T07:36:43.442Z,7.17
2018-12-11T07:38:49.521Z,7.19
2018-12-11T07:40:56.018Z,7.18
2018-12-11T07:43:02.119Z,7.16
2018-12-11T07:45:08.329Z,7.16
2018-12-11T07:47:14.508Z,7.15
2018-12-11T07:49:20.579Z,7.13
2018-12-11T07:51:26.741Z,7.11
2018-12-11T07:53:32.804Z,7.13
2018-12-11T07:55:39.102Z,7.12
2018-12-11T07:57:45.655Z,7.13
2018-12-11T07:59:52.659Z,7.14
2018-12-11T08:01:59.542Z,7.15
2018-12-11T08:04:05.985Z,7.16
2018-12-11T08:06:12.272Z,7.17
2018-12-11T08:08:19.606Z,7.19
2018-12-11T08:10:25.734Z,7.23
2018-12-11T08:12:32.047Z,7.28
2018-12-11T08:14:38.275Z,7.31
2018-12-11T08:16:46.441Z,7.33
2018-12-11T08:18:53.423Z,7.34
2018-12-11T08:21:00.402Z,7.36
2018-12-11T08:23:31.524Z,7.38
2018-12-11T08:25:40.892Z,7.39
2018-12-11T08:27:47.130Z,7.39
2018-12-11T08:30:00.049Z,7.40
2018-12-11T08:32:13.508Z,7.38
2018-12-11T08:34:22.113Z,7.44
2018-12-11T08:36:41.735Z,7.45
2018-12-11T08:38:55.939Z,7.49
2018-12-11T08:41:02.486Z,7.51
2018-12-11T08:43:11.944Z,7.54
2018-12-11T08:45:29.307Z,7.56
2018-12-11T08:47:35.987Z,7.57
2018-12-11T08:49:47.275Z,7.60
2018-12-11T08:51:57.767Z,7.60
2018-12-11T08:54:07.069Z,7.63
2018-12-11T08:56:14.683Z,7.65
2018-12-11T08:58:20.949Z,7.67
2018-12-11T09:02:55.765Z,7.69
2018-12-11T09:05:05.725Z,7.73
2018-12-11T09:07:12.563Z,7.77
2018-12-11T09:09:18.779Z,7.81
2018-12-11T09:11:25.139Z,7.84
2018-12-11T09:13:31.562Z,7.88
2018-12-11T09:15:41.881Z,7.90
2018-12-11T09:17:51.504Z,7.93
2018-12-11T09:19:57.840Z,7.97
2018-12-11T09:22:04.001Z,8.00
2018-12-11T09:24:16.467Z,8.03
2018-12-11T09:26:26.622Z,8.06
2018-12-11T09:28:33.349Z,8.09
2018-12-11T09:30:39.657Z,8.10
2018-12-11T09:32:46.637Z,8.09
2018-12-11T09:34:59.494Z,8.07
2018-12-11T09:37:05.737Z,8.07
2018-12-11T09:39:12.484Z,8.05
2018-12-11T09:41:58.395Z,8.03
2018-12-11T09:44:21.264Z,7.97
2018-12-11T09:46:28.849Z,7.95
2018-12-11T09:48:35.194Z,7.93
2018-12-11T09:50:45.795Z,7.94
2018-12-11T09:52:54.554Z,7.93
2018-12-11T09:55:02.382Z,7.93
2018-12-11T09:57:08.600Z,7.89
2018-12-11T09:59:23.234Z,7.87
2018-12-11T10:01:27.516Z,7.86
2018-12-11T10:03:34.285Z,7.86
2018-12-11T10:05:41.584Z,7.88
2018-12-11T10:07:47.614Z,7.91
2018-12-11T10:09:53.749Z,7.92
2018-12-11T10:11:59.874Z,7.96
2018-12-11T10:14:06.820Z,8.02
2018-12-11T10:16:12.970Z,8.09
2018-12-11T10:18:19.171Z,8.14
2018-12-11T10:20:25.567Z,8.16
2018-12-11T10:22:32.103Z,8.19
2018-12-11T10:24:38.482Z,8.22
2018-12-11T10:26:45.020Z,8.25
2018-12-11T10:28:51.503Z,8.28
2018-12-11T10:30:57.615Z,8.32
2018-12-11T10:33:03.904Z,8.40
2018-12-11T10:35:10.156Z,8.47
2018-12-11T10:37:16.296Z,8.55
2018-12-11T10:39:22.915Z,8.62
2018-12-11T10:41:59.408Z,8.65
2018-12-11T10:44:28.153Z,8.67
2018-12-11T10:46:36.997Z,8.70
2018-12-11T10:48:43.523Z,8.76
2018-12-11T10:50:49.738Z,8.82
2018-12-11T10:52:56.362Z,8.86
2018-12-11T10:55:02.902Z,8.92
2018-12-11T10:57:09.395Z,8.95
2018-12-11T10:59:15.535Z,8.93
2018-12-11T11:01:26.618Z,8.92
2018-12-11T11:03:32.945Z,8.89
2018-12-11T11:05:39.349Z,8.90
2018-12-11T11:07:45.781Z,8.92
2018-12-11T11:09:51.863Z,8.96
2018-12-11T11:11:58.009Z,9.01
2018-12-11T11:14:04.600Z,9.06
2018-12-11T11:16:15.090Z,9.10
2018-12-11T11:18:21.203Z,9.15
2018-12-11T11:20:28.466Z,9.17
2018-12-11T11:22:34.839Z,9.18
2018-12-11T11:24:40.941Z,9.18
2018-12-11T11:26:47.352Z,9.19
2018-12-11T11:28:54.462Z,9.20
2018-12-11T11:31:00.741Z,9.22
2018-12-11T11:33:07.383Z,9.26
2018-12-11T11:35:13.592Z,9.29
2018-12-11T11:37:19.689Z,9.31
2018-12-11T11:39:25.797Z,9.34
2018-12-11T11:41:54.358Z,9.36
2018-12-11T11:44:22.649Z,9.32
2018-12-11T11:46:28.778Z,9.30
2018-12-11T11:48:34.875Z,9.29
2018-12-11T11:50:41.231Z,9.28
2018-12-11T11:52:48.187Z,9.27
2018-12-11T11:54:54.399Z,9.23
2018-12-11T11:57:02.159Z,9.13
2018-12-11T11:59:31.049Z,9.01
2018-12-11T12:02:00.459Z,8.88
2018-12-11T12:04:08.537Z,8.80
2018-12-11T12:06:14.790Z,8.76
2018-12-11T12:08:21.289Z,8.72
2018-12-11T12:10:29.783Z,8.66
2018-12-11T12:12:36.916Z,8.58
2018-12-11T12:14:48.938Z,8.51
2018-12-11T12:16:51.259Z,8.49
2018-12-11T12:18:57.829Z,8.48
2018-12-11T12:21:04.402Z,8.48
2018-12-11T12:23:10.592Z,8.49
2018-12-11T12:25:17.374Z,8.52
2018-12-11T12:27:23.718Z,8.57
2018-12-11T12:29:29.988Z,8.61
2018-12-11T12:31:36.181Z,8.65
2018-12-11T12:33:42.407Z,8.64
2018-12-11T12:35:48.954Z,8.61
2018-12-11T12:37:55.125Z,8.65
2018-12-11T12:40:01.520Z,8.68
2018-12-11T12:42:08.481Z,8.72
2018-12-11T12:44:14.755Z,8.77
2018-12-11T12:46:20.953Z,8.81
2018-12-11T12:48:27.064Z,8.84
2018-12-11T12:50:34.237Z,8.89
2018-12-11T12:52:41.207Z,8.95
2018-12-11T12:54:47.434Z,8.98
2018-12-11T12:56:53.534Z,8.97
2018-12-11T12:59:22.520Z,8.95
2018-12-11T13:01:51.377Z,8.92
2018-12-11T13:03:57.634Z,8.88
2018-12-11T13:06:05.114Z,8.88
2018-12-11T13:08:11.349Z,8.88
2018-12-11T13:10:18.101Z,8.88
2018-12-11T13:12:24.354Z,8.88
2018-12-11T13:14:30.869Z,8.88
2018-12-11T13:16:37.222Z,8.85
2018-12-11T13:18:44.139Z,8.84
2018-12-11T13:20:50.398Z,8.85
2018-12-11T13:22:56.570Z,8.86
2018-12-11T13:25:03.075Z,8.87
2018-12-11T13:27:09.302Z,8.87
2018-12-11T13:29:15.626Z,8.88
2018-12-11T13:31:21.939Z,8.86
2018-12-11T13:33:28.154Z,8.84
2018-12-11T13:35:34.888Z,8.84
2018-12-11T13:37:41.197Z,8.84
2018-12-11T13:39:47.471Z,8.84
2018-12-11T13:41:53.909Z,8.86
2018-12-11T13:44:00.871Z,8.85
2018-12-11T13:46:06.990Z,8.85
2018-12-11T13:48:13.397Z,8.88
2018-12-11T13:50:19.622Z,8.93
2018-12-11T13:52:25.962Z,8.99
2018-12-11T13:54:32.963Z,9.05
2018-12-11T13:56:39.857Z,9.08
2018-12-11T13:58:46.178Z,9.08
2018-12-11T14:00:52.335Z,9.10
2018-12-11T14:02:58.629Z,9.10
2018-12-11T14:05:05.223Z,9.10
2018-12-11T14:07:11.807Z,9.11
2018-12-11T14:09:23.061Z,9.11
2018-12-11T14:11:29.606Z,9.11
2018-12-11T14:13:36.160Z,9.12
2018-12-11T14:15:42.347Z,9.10
2018-12-11T14:17:48.961Z,9.05
2018-12-11T14:19:55.250Z,9.01
2018-12-11T14:22:01.596Z,9.01
2018-12-11T14:24:07.797Z,9.03
2018-12-11T14:26:14.212Z,9.02
2018-12-11T14:28:21.364Z,9.05
2018-12-11T14:30:27.634Z,9.06
2018-12-11T14:32:34.070Z,9.08
2018-12-11T14:34:41.754Z,9.07
2018-12-11T14:37:10.714Z,9.05
2018-12-11T14:39:40.023Z,9.03
2018-12-11T14:41:46.228Z,9.04
2018-12-11T14:43:52.437Z,9.04
2018-12-11T14:45:58.855Z,9.03
2018-12-11T14:48:05.251Z,9.03
2018-12-11T14:50:11.527Z,9.04
2018-12-11T14:52:18.217Z,9.01
2018-12-11T14:54:24.398Z,8.96
2018-12-11T14:56:30.617Z,8.92
2018-12-11T14:58:36.781Z,8.90
2018-12-11T15:00:43.038Z,8.85
2018-12-11T15:02:49.671Z,8.81
2018-12-11T15:04:57.222Z,8.76
2018-12-11T15:07:03.490Z,8.72
2018-12-11T15:09:15.651Z,8.68
2018-12-11T15:11:22.594Z,8.65
2018-12-11T15:13:28.787Z,8.65
2018-12-11T15:15:35.053Z,8.63
2018-12-11T15:17:41.811Z,8.62
2018-12-11T15:19:48.137Z,8.64
2018-12-11T15:21:54.268Z,8.67
2018-12-11T15:24:00.557Z,8.67
2018-12-11T15:26:06.642Z,8.71
2018-12-11T15:28:12.738Z,8.71
2018-12-11T15:30:19.302Z,8.68
2018-12-11T15:32:25.819Z,8.68
2018-12-11T15:34:31.931Z,8.69
2018-12-11T15:36:38.474Z,8.71
2018-12-11T15:38:44.776Z,8.72
2018-12-11T15:40:51.149Z,8.76
2018-12-11T15:43:20.121Z,8.77
2018-12-11T15:45:49.254Z,8.77
2018-12-11T15:47:55.422Z,8.77
2018-12-11T15:50:01.583Z,8.78
2018-12-11T15:52:07.764Z,8.80
2018-12-11T15:54:13.964Z,8.78
2018-12-11T15:56:20.273Z,8.74
2018-12-11T15:58:26.503Z,8.76
2018-12-11T16:00:32.666Z,8.75
2018-12-11T16:02:39.276Z,8.73
2018-12-11T16:04:45.520Z,8.68
2018-12-11T16:06:51.814Z,8.65
2018-12-11T16:08:58.082Z,8.61
2018-12-11T16:11:04.277Z,8.59
2018-12-11T16:13:10.461Z,8.56
2018-12-11T16:15:16.613Z,8.55
2018-12-11T16:17:22.886Z,8.51
2018-12-11T16:19:29.572Z,8.46
2018-12-11T16:21:36.036Z,8.40
2018-12-11T16:23:42.514Z,8.36
2018-12-11T16:25:48.771Z,8.32
2018-12-11T16:27:55.010Z,8.31
2018-12-11T16:30:01.797Z,8.30
2018-12-11T16:34:25.812Z,8.28
2018-12-11T16:36:32.067Z,8.30
2018-12-11T16:38:38.479Z,8.31
2018-12-11T16:40:45.171Z,8.30
2018-12-11T16:43:14.279Z,8.31
2018-12-11T16:45:42.544Z,8.29
2018-12-11T16:47:49.166Z,8.29
2018-12-11T16:49:55.420Z,8.26
2018-12-11T16:52:01.759Z,8.24
2018-12-11T16:54:07.978Z,8.23
2018-12-11T16:56:14.694Z,8.24
2018-12-11T16:58:21.093Z,8.25
2018-12-11T17:00:49.579Z,8.26
2018-12-11T17:03:18.112Z,8.29
2018-12-11T17:05:25.051Z,8.31
2018-12-11T17:07:32.365Z,8.34
2018-12-11T17:09:42.271Z,8.37
2018-12-11T17:11:48.974Z,8.39
2018-12-11T17:13:55.256Z,8.42
2018-12-11T17:16:01.532Z,8.46
2018-12-11T17:18:08.231Z,8.49
2018-12-11T17:20:14.524Z,8.48
2018-12-11T17:22:20.635Z,8.49
2018-12-11T17:24:26.839Z,8.50
2018-12-11T17:26:32.973Z,8.51
2018-12-11T17:28:39.531Z,8.52
2018-12-11T17:30:46.048Z,8.52
2018-12-11T17:32:52.310Z,8.55
2018-12-11T17:34:58.462Z,8.57
2018-12-11T17:37:04.765Z,8.57
2018-12-11T17:39:10.944Z,8.56
2018-12-11T17:41:17.203Z,8.54
2018-12-11T17:43:23.658Z,8.48
2018-12-11T17:45:29.812Z,8.43
2018-12-11T17:47:36.186Z,8.39
2018-12-11T17:49:43.783Z,8.36
2018-12-11T17:51:50.021Z,8.36
2018-12-11T17:53:56.394Z,8.36
2018-12-11T17:56:02.708Z,8.36
2018-12-11T17:58:10.007Z,8.38
2018-12-11T18:02:38.571Z,8.33
2018-12-11T18:05:14.864Z,8.28
2018-12-11T18:07:43.354Z,8.21
2018-12-11T18:09:49.645Z,8.12
2018-12-11T18:11:55.978Z,8.04
2018-12-11T18:14:02.568Z,8.00
2018-12-11T18:16:10.772Z,7.97
2018-12-11T18:18:17.036Z,7.95
2018-12-11T18:20:23.654Z,7.92
2018-12-11T18:22:29.829Z,7.88
2018-12-11T18:24:35.945Z,7.82
2018-12-11T18:26:42.180Z,7.78
2018-12-11T18:28:48.441Z,7.73
2018-12-11T18:33:28.198Z,7.69
2018-12-11T18:35:34.549Z,7.66
2018-12-11T18:37:41.403Z,7.66
2018-12-11T18:39:47.705Z,7.65
2018-12-11T18:42:16.153Z,7.62
2018-12-11T18:44:45.506Z,7.64
2018-12-11T18:46:52.393Z,7.65
2018-12-11T18:48:58.918Z,7.67
2018-12-11T18:51:06.122Z,7.69
2018-12-11T18:53:13.241Z,7.70
2018-12-11T18:55:19.555Z,7.73
2018-12-11T18:57:25.928Z,7.71
2018-12-11T18:59:32.277Z,7.70
2018-12-11T19:01:41.667Z,7.67
2018-12-11T19:04:09.797Z,7.64
2018-12-11T19:06:39.038Z,7.60
2018-12-11T19:08:45.377Z,7.55
2018-12-11T19:10:52.817Z,7.50
2018-12-11T19:13:01.279Z,7.47
2018-12-11T19:15:08.004Z,7.43
2018-12-11T19:17:14.483Z,7.41
2018-12-11T19:19:20.878Z,7.40
2018-12-11T19:21:27.292Z,7.39
2018-12-11T19:23:45.803Z,7.39
2018-12-11T19:25:52.343Z,7.35
2018-12-11T19:27:58.668Z,7.33
2018-12-11T19:30:05.981Z,7.31
2018-12-11T19:32:14.323Z,7.31
2018-12-11T19:36:55.713Z,7.30
2018-12-11T19:39:07.553Z,7.25
2018-12-11T19:43:42.519Z,7.14
2018-12-11T19:45:58.837Z,7.10
2018-12-11T19:48:08.400Z,7.07
2018-12-11T19:50:17.896Z,7.06
2018-12-11T19:52:27.632Z,7.02
2018-12-11T19:54:38.332Z,7.00
2018-12-11T19:59:20.333Z,6.96
2018-12-11T20:01:29.211Z,6.94
2018-12-11T20:04:01.885Z,6.88
2018-12-11T20:06:34.897Z,6.84
2018-12-11T20:08:42.908Z,6.77
2018-12-11T20:10:54.402Z,6.74
2018-12-11T20:13:02.158Z,6.73
2018-12-11T20:15:11.052Z,6.73
2018-12-11T20:20:02.264Z,6.76
2018-12-11T20:22:11.175Z,6.77
2018-12-11T20:24:37.483Z,6.75
2018-12-11T20:26:57.968Z,6.72
2018-12-11T20:29:11.975Z,6.69
2018-12-11T20:31:19.903Z,6.66
2018-12-11T20:33:28.509Z,6.65
2018-12-11T20:35:39.320Z,6.64
2018-12-11T20:37:48.453Z,6.63
2018-12-11T20:39:55.162Z,6.62
2018-12-11T20:42:01.855Z,6.61
2018-12-11T20:44:08.258Z,6.60
2018-12-11T20:46:14.624Z,6.60
2018-12-11T20:48:21.864Z,6.58
2018-12-11T20:50:29.233Z,6.57
2018-12-11T20:52:36.127Z,6.58
2018-12-11T20:54:42.379Z,6.59
2018-12-11T20:56:50.844Z,6.59
2018-12-11T20:59:19.779Z,6.59
2018-12-11T21:01:48.112Z,6.58
2018-12-11T21:03:54.291Z,6.56
2018-12-11T21:06:00.458Z,6.54
2018-12-11T21:08:07.081Z,6.55
2018-12-11T21:10:13.666Z,6.55
2018-12-11T21:12:20.122Z,6.58
2018-12-11T21:14:26.287Z,6.59
2018-12-11T21:16:32.761Z,6.60
2018-12-11T21:18:39.444Z,6.62
2018-12-11T21:20:45.639Z,6.63
2018-12-11T21:22:51.977Z,6.64
2018-12-11T21:27:17.420Z,6.65
2018-12-11T21:29:24.433Z,6.66
2018-12-11T21:31:30.631Z,6.64
2018-12-11T21:35:54.886Z,6.62
2018-12-11T21:38:01.939Z,6.61
2018-12-11T21:40:08.787Z,6.59
2018-12-11T21:42:15.184Z,6.57
2018-12-11T21:44:21.508Z,6.55
2018-12-11T21:46:27.993Z,6.53
2018-12-11T21:48:34.530Z,6.51
2018-12-11T21:50:40.828Z,6.50
2018-12-11T21:52:47.141Z,6.50
2018-12-11T21:54:53.335Z,6.50
2018-12-11T21:57:00.174Z,6.48
2018-12-11T21:59:06.446Z,6.48
2018-12-11T22:01:12.637Z,6.44
2018-12-11T22:05:36.317Z,6.46
2018-12-11T22:07:43.774Z,6.44
2018-12-11T22:09:50.305Z,6.43
2018-12-11T22:11:56.787Z,6.44
2018-12-11T22:14:03.502Z,6.44
2018-12-11T22:16:10.415Z,6.45
2018-12-11T22:18:17.192Z,6.47
2018-12-11T22:20:23.399Z,6.47
2018-12-11T22:22:30.486Z,6.48
2018-12-11T22:24:58.773Z,6.49
2018-12-11T22:27:27.834Z,6.51
2018-12-11T22:29:33.929Z,6.53
2018-12-11T22:31:40.051Z,6.54
2018-12-11T22:33:46.366Z,6.56
2018-12-11T22:35:52.550Z,6.56
2018-12-11T22:37:59.668Z,6.56
2018-12-11T22:40:06.762Z,6.56
2018-12-11T22:42:13.167Z,6.56
2018-12-11T22:44:19.361Z,6.56
2018-12-11T22:46:25.565Z,6.57
2018-12-11T22:48:36.794Z,6.58
2018-12-11T22:50:44.021Z,6.57
2018-12-11T22:52:50.270Z,6.56
2018-12-11T22:54:56.717Z,6.55
2018-12-11T22:57:03.606Z,6.57
2018-12-11T22:59:09.843Z,6.57
2018-12-11T23:01:16.389Z,6.62
2018-12-11T23:03:22.471Z,6.64
2018-12-11T23:05:51.101Z,6.68
2018-12-11T23:08:20.267Z,6.72
2018-12-11T23:10:26.468Z,6.72
2018-12-11T23:12:33.037Z,6.71
2018-12-11T23:14:39.571Z,6.71
2018-12-11T23:16:46.115Z,6.69
2018-12-11T23:18:52.947Z,6.68
2018-12-11T23:20:59.231Z,6.68
2018-12-11T23:23:05.596Z,6.69
2018-12-11T23:25:11.785Z,6.69
2018-12-11T23:27:24.633Z,6.72
2018-12-11T23:29:30.704Z,6.74
2018-12-11T23:31:37.328Z,6.77
2018-12-11T23:33:44.773Z,6.78
2018-12-11T23:35:50.886Z,6.78
2018-12-11T23:37:56.989Z,6.81
2018-12-11T23:40:03.477Z,6.83
2018-12-11T23:42:09.808Z,6.85
2018-12-11T23:44:16.882Z,6.85
2018-12-11T23:46:22.996Z,6.86
2018-12-11T23:48:29.660Z,6.88
2018-12-11T23:50:35.818Z,6.89
2018-12-11T23:52:42.067Z,6.87
2018-12-11T23:54:48.168Z,6.85
2018-12-11T23:56:54.237Z,6.83
2018-12-11T23:59:03.190Z,6.82
